sensor_id;sensor_type;location;lat;lon;timestamp;P1;durP1;ratioP1;P2;durP2;ratioP2
16139;SDS011;8175;49.326;12.690;2023-02-15T07:28:03;25.13;;;9.57;;
16139;SDS011;8175;49.326;12.690;2023-02-15T07:30:29;30.87;;;10.30;;
16139;SDS011;8175;49.326;12.690;2023-02-15T07:41:15;25.97;;;9.27;;
16139;SDS011;8175;49.326;12.690;2023-02-15T07:43:42;50.50;;;11.97;;
16139;SDS011;8175;49.326;12.690;2023-02-15T07:46:09;50.10;;;11.63;;
16139;SDS011;8175;49.326;12.690;2023-02-15T07:48:37;43.00;;;11.20;;
16139;SDS011;8175;49.326;12.690;2023-02-15T07:51:04;55.43;;;10.97;;
16139;SDS011;8175;49.326;12.690;2023-02-15T07:53:32;50.30;;;11.63;;
16139;SDS011;8175;49.326;12.690;2023-02-15T07:56:02;48.97;;;12.50;;
16139;SDS011;8175;49.326;12.690;2023-02-15T07:58:29;42.27;;;13.27;;
16139;SDS011;8175;49.326;12.690;2023-02-15T08:01:14;34.47;;;12.33;;
16139;SDS011;8175;49.326;12.690;2023-02-15T08:03:39;27.57;;;11.83;;
16139;SDS011;8175;49.326;12.690;2023-02-15T08:06:06;36.57;;;11.70;;
16139;SDS011;8175;49.326;12.690;2023-02-15T08:08:35;66.53;;;13.20;;
16139;SDS011;8175;49.326;12.690;2023-02-15T08:14:01;41.47;;;12.27;;
16139;SDS011;8175;49.326;12.690;2023-02-15T08:16:45;48.67;;;13.33;;
16139;SDS011;8175;49.326;12.690;2023-02-15T08:19:12;24.93;;;11.87;;
16139;SDS011;8175;49.326;12.690;2023-02-15T08:21:46;52.67;;;11.80;;
16139;SDS011;8175;49.326;12.690;2023-02-15T08:24:17;27.03;;;13.20;;
16139;SDS011;8175;49.326;12.690;2023-02-15T08:26:48;21.60;;;12.03;;
16139;SDS011;8175;49.326;12.690;2023-02-15T08:29:14;38.70;;;11.23;;
16139;SDS011;8175;49.326;12.690;2023-02-15T08:31:41;31.20;;;11.93;;
16139;SDS011;8175;49.326;12.690;2023-02-15T08:34:08;26.77;;;12.30;;
16139;SDS011;8175;49.326;12.690;2023-02-15T08:36:36;22.60;;;12.37;;
16139;SDS011;8175;49.326;12.690;2023-02-15T08:39:03;20.87;;;11.97;;
16139;SDS011;8175;49.326;12.690;2023-02-15T08:41:31;21.27;;;11.30;;
16139;SDS011;8175;49.326;12.690;2023-02-15T08:44:00;29.90;;;11.13;;
16139;SDS011;8175;49.326;12.690;2023-02-15T08:46:28;24.77;;;11.67;;
16139;SDS011;8175;49.326;12.690;2023-02-15T08:48:57;38.13;;;11.70;;
16139;SDS011;8175;49.326;12.690;2023-02-15T08:51:24;33.70;;;11.97;;
16139;SDS011;8175;49.326;12.690;2023-02-15T08:53:52;38.47;;;11.63;;
16139;SDS011;8175;49.326;12.690;2023-02-15T08:56:20;30.27;;;11.37;;
16139;SDS011;8175;49.326;12.690;2023-02-15T08:58:48;56.60;;;15.93;;
16139;SDS011;8175;49.326;12.690;2023-02-15T09:01:15;26.30;;;12.63;;
16139;SDS011;8175;49.326;12.690;2023-02-15T09:03:43;30.77;;;13.73;;
16139;SDS011;8175;49.326;12.690;2023-02-15T09:06:10;16.07;;;10.03;;
16139;SDS011;8175;49.326;12.690;2023-02-15T09:08:36;42.27;;;11.30;;
16139;SDS011;8175;49.326;12.690;2023-02-15T09:11:06;20.03;;;11.07;;
16139;SDS011;8175;49.326;12.690;2023-02-15T09:13:33;43.40;;;11.90;;
16139;SDS011;8175;49.326;12.690;2023-02-15T09:16:02;37.37;;;10.53;;
16139;SDS011;8175;49.326;12.690;2023-02-15T09:18:31;52.30;;;9.50;;
16139;SDS011;8175;49.326;12.690;2023-02-15T09:21:03;67.97;;;11.33;;
16139;SDS011;8175;49.326;12.690;2023-02-15T09:23:30;66.40;;;12.50;;
16139;SDS011;8175;49.326;12.690;2023-02-15T09:25:55;29.13;;;10.17;;
16139;SDS011;8175;49.326;12.690;2023-02-15T09:28:21;43.30;;;9.83;;
16139;SDS011;8175;49.326;12.690;2023-02-15T09:30:47;67.83;;;11.73;;
16139;SDS011;8175;49.326;12.690;2023-02-15T09:33:13;39.07;;;11.93;;
16139;SDS011;8175;49.326;12.690;2023-02-15T09:35:38;26.07;;;10.60;;
16139;SDS011;8175;49.326;12.690;2023-02-15T09:38:04;20.00;;;9.57;;
16139;SDS011;8175;49.326;12.690;2023-02-15T09:40:31;63.33;;;11.80;;
16139;SDS011;8175;49.326;12.690;2023-02-15T09:43:20;35.60;;;10.50;;
16139;SDS011;8175;49.326;12.690;2023-02-15T09:46:39;54.53;;;10.97;;
16139;SDS011;8175;49.326;12.690;2023-02-15T09:49:09;29.90;;;10.87;;
16139;SDS011;8175;49.326;12.690;2023-02-15T09:51:58;50.67;;;11.13;;
16139;SDS011;8175;49.326;12.690;2023-02-15T09:54:52;33.33;;;9.47;;
16139;SDS011;8175;49.326;12.690;2023-02-15T10:03:13;20.70;;;10.10;;
16139;SDS011;8175;49.326;12.690;2023-02-15T10:08:47;12.90;;;8.73;;
16139;SDS011;8175;49.326;12.690;2023-02-15T10:11:43;12.47;;;7.80;;
16139;SDS011;8175;49.326;12.690;2023-02-15T10:14:20;13.10;;;7.43;;
16139;SDS011;8175;49.326;12.690;2023-02-15T10:25:13;9.70;;;6.87;;
16139;SDS011;8175;49.326;12.690;2023-02-15T10:27:44;8.93;;;6.80;;
16139;SDS011;8175;49.326;12.690;2023-02-15T10:30:15;11.43;;;7.63;;
16139;SDS011;8175;49.326;12.690;2023-02-15T10:47:06;8.90;;;7.00;;
16139;SDS011;8175;49.326;12.690;2023-02-15T11:06:09;7.67;;;6.40;;
16139;SDS011;8175;49.326;12.690;2023-02-15T11:08:48;8.37;;;6.93;;
16139;SDS011;8175;49.326;12.690;2023-02-15T11:11:30;8.27;;;7.40;;
16139;SDS011;8175;49.326;12.690;2023-02-15T11:14:02;11.23;;;8.60;;
16139;SDS011;8175;49.326;12.690;2023-02-15T11:16:36;7.80;;;7.00;;
16139;SDS011;8175;49.326;12.690;2023-02-15T11:21:45;8.57;;;7.67;;
16139;SDS011;8175;49.326;12.690;2023-02-15T11:24:16;7.73;;;6.30;;
16139;SDS011;8175;49.326;12.690;2023-02-15T11:26:44;8.47;;;7.27;;
16139;SDS011;8175;49.326;12.690;2023-02-15T11:29:29;7.83;;;6.73;;
16139;SDS011;8175;49.326;12.690;2023-02-15T11:34:57;8.60;;;7.20;;
16139;SDS011;8175;49.326;12.690;2023-02-15T11:37:44;8.70;;;6.70;;
16139;SDS011;8175;49.326;12.690;2023-02-15T11:42:58;9.40;;;7.37;;
16139;SDS011;8175;49.326;12.690;2023-02-15T11:45:29;9.83;;;7.50;;
16139;SDS011;8175;49.326;12.690;2023-02-15T11:47:57;9.73;;;7.23;;
16139;SDS011;8175;49.326;12.690;2023-02-15T11:50:25;10.10;;;8.53;;
16139;SDS011;8175;49.326;12.690;2023-02-15T11:52:56;10.70;;;7.77;;
16139;SDS011;8175;49.326;12.690;2023-02-15T11:55:28;10.37;;;7.33;;
16139;SDS011;8175;49.326;12.690;2023-02-15T12:03:21;8.70;;;7.10;;
16139;SDS011;8175;49.326;12.690;2023-02-15T12:05:53;8.50;;;6.70;;
16139;SDS011;8175;49.326;12.690;2023-02-15T12:08:23;9.73;;;7.60;;
16139;SDS011;8175;49.326;12.690;2023-02-15T12:13:19;10.10;;;7.53;;
16139;SDS011;8175;49.326;12.690;2023-02-15T12:15:46;10.97;;;7.73;;
16139;SDS011;8175;49.326;12.690;2023-02-15T12:18:38;9.43;;;7.33;;
16139;SDS011;8175;49.326;12.690;2023-02-15T12:21:09;9.33;;;6.90;;
16139;SDS011;8175;49.326;12.690;2023-02-15T12:24:21;10.30;;;8.07;;
16139;SDS011;8175;49.326;12.690;2023-02-15T12:26:56;11.97;;;8.13;;
16139;SDS011;8175;49.326;12.690;2023-02-15T12:29:30;11.80;;;8.63;;
16139;SDS011;8175;49.326;12.690;2023-02-15T12:32:00;11.67;;;8.47;;
16139;SDS011;8175;49.326;12.690;2023-02-15T12:34:36;11.33;;;8.27;;
16139;SDS011;8175;49.326;12.690;2023-02-15T12:37:15;12.53;;;8.70;;
16139;SDS011;8175;49.326;12.690;2023-02-15T12:39:50;10.43;;;8.73;;
16139;SDS011;8175;49.326;12.690;2023-02-15T12:42:21;12.83;;;9.00;;
16139;SDS011;8175;49.326;12.690;2023-02-15T12:45:00;12.17;;;8.43;;
16139;SDS011;8175;49.326;12.690;2023-02-15T12:47:28;12.17;;;8.33;;
16139;SDS011;8175;49.326;12.690;2023-02-15T12:52:47;11.30;;;7.50;;
16139;SDS011;8175;49.326;12.690;2023-02-15T12:58:04;11.20;;;8.33;;
16139;SDS011;8175;49.326;12.690;2023-02-15T13:00:41;10.33;;;7.33;;
16139;SDS011;8175;49.326;12.690;2023-02-15T13:03:14;10.23;;;7.37;;
16139;SDS011;8175;49.326;12.690;2023-02-15T13:05:42;9.40;;;6.80;;
16139;SDS011;8175;49.326;12.690;2023-02-15T13:10:56;8.20;;;7.10;;
16139;SDS011;8175;49.326;12.690;2023-02-15T13:13:35;8.97;;;7.60;;
16139;SDS011;8175;49.326;12.690;2023-02-15T13:16:15;7.90;;;7.10;;
16139;SDS011;8175;49.326;12.690;2023-02-15T13:18:45;9.20;;;8.27;;
16139;SDS011;8175;49.326;12.690;2023-02-15T13:21:19;9.70;;;8.20;;
16139;SDS011;8175;49.326;12.690;2023-02-15T13:26:44;10.37;;;8.83;;
16139;SDS011;8175;49.326;12.690;2023-02-15T13:29:15;10.63;;;8.90;;
16139;SDS011;8175;49.326;12.690;2023-02-15T13:31:46;10.80;;;9.03;;
16139;SDS011;8175;49.326;12.690;2023-02-15T13:42:30;10.27;;;8.52;;
16139;SDS011;8175;49.326;12.690;2023-02-15T13:55:57;9.50;;;8.35;;
16139;SDS011;8175;49.326;12.690;2023-02-15T13:58:52;9.23;;;8.27;;
16139;SDS011;8175;49.326;12.690;2023-02-15T14:01:51;9.63;;;8.30;;
16139;SDS011;8175;49.326;12.690;2023-02-15T14:04:26;9.45;;;7.93;;
16139;SDS011;8175;49.326;12.690;2023-02-15T14:07:09;9.00;;;8.07;;
16139;SDS011;8175;49.326;12.690;2023-02-15T14:09:59;8.30;;;7.03;;
16139;SDS011;8175;49.326;12.690;2023-02-15T14:15:14;7.33;;;6.63;;
16139;SDS011;8175;49.326;12.690;2023-02-15T14:20:42;10.43;;;7.87;;
16139;SDS011;8175;49.326;12.690;2023-02-15T14:31:43;8.67;;;7.53;;
16139;SDS011;8175;49.326;12.690;2023-02-15T14:34:23;11.17;;;8.63;;
16139;SDS011;8175;49.326;12.690;2023-02-15T14:36:54;17.43;;;13.23;;
16139;SDS011;8175;49.326;12.690;2023-02-15T14:39:39;16.33;;;12.90;;
16139;SDS011;8175;49.326;12.690;2023-02-15T14:42:41;17.47;;;13.97;;
16139;SDS011;8175;49.326;12.690;2023-02-15T14:48:52;12.97;;;10.77;;
16139;SDS011;8175;49.326;12.690;2023-02-15T14:50:57;19.87;;;14.40;;
16139;SDS011;8175;49.326;12.690;2023-02-15T14:58:38;9.73;;;7.47;;
16139;SDS011;8175;49.326;12.690;2023-02-15T15:03:58;9.80;;;8.50;;
16139;SDS011;8175;49.326;12.690;2023-02-15T15:06:29;10.33;;;8.00;;
16139;SDS011;8175;49.326;12.690;2023-02-15T15:09:00;12.87;;;10.07;;
16139;SDS011;8175;49.326;12.690;2023-02-15T15:11:48;11.23;;;8.73;;
16139;SDS011;8175;49.326;12.690;2023-02-15T15:16:56;10.97;;;8.77;;
16139;SDS011;8175;49.326;12.690;2023-02-15T15:22:17;13.13;;;10.17;;
16139;SDS011;8175;49.326;12.690;2023-02-15T15:49:16;20.53;;;11.80;;
16139;SDS011;8175;49.326;12.690;2023-02-15T15:51:45;16.17;;;10.73;;
16139;SDS011;8175;49.326;12.690;2023-02-15T15:54:18;18.97;;;12.13;;
16139;SDS011;8175;49.326;12.690;2023-02-15T15:56:56;15.77;;;10.57;;
16139;SDS011;8175;49.326;12.690;2023-02-15T15:59:28;16.53;;;10.87;;
16139;SDS011;8175;49.326;12.690;2023-02-15T16:02:05;17.07;;;10.47;;
16139;SDS011;8175;49.326;12.690;2023-02-15T16:04:33;25.23;;;16.17;;
16139;SDS011;8175;49.326;12.690;2023-02-15T16:10:00;38.07;;;26.00;;
16139;SDS011;8175;49.326;12.690;2023-02-15T16:12:35;26.00;;;17.00;;
16139;SDS011;8175;49.326;12.690;2023-02-15T16:15:13;22.93;;;16.47;;
16139;SDS011;8175;49.326;12.690;2023-02-15T16:17:41;21.40;;;15.10;;
16139;SDS011;8175;49.326;12.690;2023-02-15T16:20:20;20.30;;;13.70;;
16139;SDS011;8175;49.326;12.690;2023-02-15T16:22:47;27.60;;;15.00;;
16139;SDS011;8175;49.326;12.690;2023-02-15T16:28:11;22.10;;;14.77;;
16139;SDS011;8175;49.326;12.690;2023-02-15T16:30:37;21.73;;;14.07;;
16139;SDS011;8175;49.326;12.690;2023-02-15T16:33:05;25.50;;;15.20;;
16139;SDS011;8175;49.326;12.690;2023-02-15T16:35:31;43.27;;;24.60;;
16139;SDS011;8175;49.326;12.690;2023-02-15T16:37:58;31.37;;;16.27;;
16139;SDS011;8175;49.326;12.690;2023-02-15T16:42:57;30.10;;;16.57;;
16139;SDS011;8175;49.326;12.690;2023-02-15T16:45:27;28.83;;;15.80;;
16139;SDS011;8175;49.326;12.690;2023-02-15T16:47:57;40.30;;;15.80;;
16139;SDS011;8175;49.326;12.690;2023-02-15T16:50:33;28.87;;;16.70;;
16139;SDS011;8175;49.326;12.690;2023-02-15T16:53:01;48.27;;;18.70;;
16139;SDS011;8175;49.326;12.690;2023-02-15T16:55:31;28.20;;;17.40;;
16139;SDS011;8175;49.326;12.690;2023-02-15T16:58:02;85.73;;;20.27;;
16139;SDS011;8175;49.326;12.690;2023-02-15T17:00:31;75.37;;;20.20;;
16139;SDS011;8175;49.326;12.690;2023-02-15T17:03:05;31.97;;;15.67;;
16139;SDS011;8175;49.326;12.690;2023-02-15T17:05:50;39.97;;;15.47;;
16139;SDS011;8175;49.326;12.690;2023-02-15T17:13:24;66.23;;;19.87;;
16139;SDS011;8175;49.326;12.690;2023-02-15T17:18:29;66.93;;;17.80;;
16139;SDS011;8175;49.326;12.690;2023-02-15T17:21:01;92.37;;;17.70;;
16139;SDS011;8175;49.326;12.690;2023-02-15T17:23:36;40.10;;;15.57;;
16139;SDS011;8175;49.326;12.690;2023-02-15T17:26:15;40.37;;;15.00;;
16139;SDS011;8175;49.326;12.690;2023-02-15T17:29:11;61.80;;;14.50;;
16139;SDS011;8175;49.326;12.690;2023-02-15T17:31:36;25.40;;;13.40;;
16139;SDS011;8175;49.326;12.690;2023-02-15T17:34:02;26.00;;;14.50;;
16139;SDS011;8175;49.326;12.690;2023-02-15T17:36:30;57.43;;;16.77;;
16139;SDS011;8175;49.326;12.690;2023-02-15T17:41:25;38.03;;;19.97;;
16139;SDS011;8175;49.326;12.690;2023-02-15T17:43:52;22.80;;;14.73;;
16139;SDS011;8175;49.326;12.690;2023-02-15T17:46:18;52.80;;;16.37;;
16139;SDS011;8175;49.326;12.690;2023-02-15T17:48:47;37.93;;;15.13;;
16139;SDS011;8175;49.326;12.690;2023-02-15T17:51:15;56.47;;;15.00;;
16139;SDS011;8175;49.326;12.690;2023-02-15T17:53:42;31.90;;;15.60;;
16139;SDS011;8175;49.326;12.690;2023-02-15T17:56:28;34.50;;;15.53;;
16139;SDS011;8175;49.326;12.690;2023-02-15T17:58:54;28.77;;;14.03;;
16139;SDS011;8175;49.326;12.690;2023-02-15T18:01:20;26.70;;;13.20;;
16139;SDS011;8175;49.326;12.690;2023-02-15T18:04:07;32.17;;;13.83;;
16139;SDS011;8175;49.326;12.690;2023-02-15T18:06:53;49.67;;;15.53;;
16139;SDS011;8175;49.326;12.690;2023-02-15T18:09:37;63.10;;;14.73;;
16139;SDS011;8175;49.326;12.690;2023-02-15T18:12:28;32.20;;;14.47;;
16139;SDS011;8175;49.326;12.690;2023-02-15T18:14:56;53.03;;;16.23;;
16139;SDS011;8175;49.326;12.690;2023-02-15T18:17:27;25.00;;;12.93;;
16139;SDS011;8175;49.326;12.690;2023-02-15T18:20:00;38.43;;;16.33;;
16139;SDS011;8175;49.326;12.690;2023-02-15T18:22:29;31.10;;;15.93;;
16139;SDS011;8175;49.326;12.690;2023-02-15T18:24:55;27.73;;;13.83;;
16139;SDS011;8175;49.326;12.690;2023-02-15T18:27:22;30.53;;;14.77;;
16139;SDS011;8175;49.326;12.690;2023-02-15T18:29:47;29.83;;;15.77;;
16139;SDS011;8175;49.326;12.690;2023-02-15T18:32:17;30.60;;;15.13;;
16139;SDS011;8175;49.326;12.690;2023-02-15T18:34:49;31.23;;;14.93;;
16139;SDS011;8175;49.326;12.690;2023-02-15T18:37:17;38.63;;;16.03;;
16139;SDS011;8175;49.326;12.690;2023-02-15T18:39:45;28.30;;;16.40;;
16139;SDS011;8175;49.326;12.690;2023-02-15T18:42:34;38.83;;;17.77;;
16139;SDS011;8175;49.326;12.690;2023-02-15T18:45:00;36.27;;;16.23;;
16139;SDS011;8175;49.326;12.690;2023-02-15T18:47:45;27.03;;;15.60;;
16139;SDS011;8175;49.326;12.690;2023-02-15T18:50:12;30.20;;;15.97;;
16139;SDS011;8175;49.326;12.690;2023-02-15T18:52:39;32.37;;;16.30;;
16139;SDS011;8175;49.326;12.690;2023-02-15T18:55:13;35.63;;;16.43;;
16139;SDS011;8175;49.326;12.690;2023-02-15T18:57:45;30.13;;;17.47;;
16139;SDS011;8175;49.326;12.690;2023-02-15T19:00:18;34.47;;;16.77;;
16139;SDS011;8175;49.326;12.690;2023-02-15T19:02:54;36.63;;;18.57;;
16139;SDS011;8175;49.326;12.690;2023-02-15T19:05:21;92.03;;;22.43;;
16139;SDS011;8175;49.326;12.690;2023-02-15T19:07:47;54.57;;;18.47;;
16139;SDS011;8175;49.326;12.690;2023-02-15T19:10:18;40.50;;;16.90;;
16139;SDS011;8175;49.326;12.690;2023-02-15T19:12:47;44.37;;;21.30;;
16139;SDS011;8175;49.326;12.690;2023-02-15T19:15:17;45.60;;;24.03;;
16139;SDS011;8175;49.326;12.690;2023-02-15T19:17:44;63.70;;;18.03;;
16139;SDS011;8175;49.326;12.690;2023-02-15T19:20:17;42.87;;;16.93;;
16139;SDS011;8175;49.326;12.690;2023-02-15T19:22:45;48.53;;;18.00;;
16139;SDS011;8175;49.326;12.690;2023-02-15T19:25:19;33.13;;;16.27;;
16139;SDS011;8175;49.326;12.690;2023-02-15T19:27:53;27.43;;;15.83;;
16139;SDS011;8175;49.326;12.690;2023-02-15T19:30:29;55.10;;;18.27;;
16139;SDS011;8175;49.326;12.690;2023-02-15T19:32:56;37.77;;;16.60;;
16139;SDS011;8175;49.326;12.690;2023-02-15T19:35:23;41.47;;;17.63;;
16139;SDS011;8175;49.326;12.690;2023-02-15T19:37:52;44.40;;;19.17;;
16139;SDS011;8175;49.326;12.690;2023-02-15T19:40:23;41.53;;;17.57;;
16139;SDS011;8175;49.326;12.690;2023-02-15T19:42:54;30.87;;;17.40;;
16139;SDS011;8175;49.326;12.690;2023-02-15T19:45:21;60.07;;;24.40;;
16139;SDS011;8175;49.326;12.690;2023-02-15T19:47:51;77.67;;;27.70;;
16139;SDS011;8175;49.326;12.690;2023-02-15T19:50:20;102.50;;;29.70;;
16139;SDS011;8175;49.326;12.690;2023-02-15T19:52:47;61.90;;;20.17;;
16139;SDS011;8175;49.326;12.690;2023-02-15T19:57:46;138.57;;;25.57;;
16139;SDS011;8175;49.326;12.690;2023-02-15T20:00:14;76.50;;;22.50;;
16139;SDS011;8175;49.326;12.690;2023-02-15T20:02:44;113.90;;;24.47;;
16139;SDS011;8175;49.326;12.690;2023-02-15T20:05:09;73.13;;;23.50;;
16139;SDS011;8175;49.326;12.690;2023-02-15T20:07:35;81.83;;;23.20;;
16139;SDS011;8175;49.326;12.690;2023-02-15T20:10:01;61.83;;;21.63;;
16139;SDS011;8175;49.326;12.690;2023-02-15T20:12:27;34.93;;;19.50;;
16139;SDS011;8175;49.326;12.690;2023-02-15T20:14:53;38.97;;;19.90;;
16139;SDS011;8175;49.326;12.690;2023-02-15T20:17:20;50.27;;;20.23;;
16139;SDS011;8175;49.326;12.690;2023-02-15T20:19:46;40.97;;;20.97;;
16139;SDS011;8175;49.326;12.690;2023-02-15T20:22:25;57.47;;;20.77;;
16139;SDS011;8175;49.326;12.690;2023-02-15T20:24:52;45.33;;;21.70;;
16139;SDS011;8175;49.326;12.690;2023-02-15T20:27:21;38.50;;;19.37;;
16139;SDS011;8175;49.326;12.690;2023-02-15T20:29:47;35.13;;;19.03;;
16139;SDS011;8175;49.326;12.690;2023-02-15T20:32:14;49.20;;;19.50;;
16139;SDS011;8175;49.326;12.690;2023-02-15T20:34:40;51.93;;;20.33;;
16139;SDS011;8175;49.326;12.690;2023-02-15T20:37:08;52.87;;;19.50;;
16139;SDS011;8175;49.326;12.690;2023-02-15T20:39:45;52.80;;;18.33;;
16139;SDS011;8175;49.326;12.690;2023-02-15T20:42:11;49.33;;;17.77;;
16139;SDS011;8175;49.326;12.690;2023-02-15T20:44:37;37.53;;;17.03;;
16139;SDS011;8175;49.326;12.690;2023-02-15T20:47:05;46.60;;;20.07;;
16139;SDS011;8175;49.326;12.690;2023-02-15T20:49:31;56.50;;;20.07;;
16139;SDS011;8175;49.326;12.690;2023-02-15T20:51:56;35.37;;;18.80;;
16139;SDS011;8175;49.326;12.690;2023-02-15T20:54:24;57.73;;;18.70;;
16139;SDS011;8175;49.326;12.690;2023-02-15T20:56:52;51.00;;;17.40;;
16139;SDS011;8175;49.326;12.690;2023-02-15T20:59:25;57.30;;;19.00;;
16139;SDS011;8175;49.326;12.690;2023-02-15T21:01:56;48.07;;;18.70;;
16139;SDS011;8175;49.326;12.690;2023-02-15T21:04:27;102.10;;;20.27;;
16139;SDS011;8175;49.326;12.690;2023-02-15T21:06:55;95.77;;;20.27;;
16139;SDS011;8175;49.326;12.690;2023-02-15T21:09:20;93.40;;;19.33;;
16139;SDS011;8175;49.326;12.690;2023-02-15T21:11:46;97.43;;;21.17;;
16139;SDS011;8175;49.326;12.690;2023-02-15T21:14:17;103.60;;;21.13;;
16139;SDS011;8175;49.326;12.690;2023-02-15T21:16:44;121.47;;;23.07;;
16139;SDS011;8175;49.326;12.690;2023-02-15T21:19:14;76.13;;;19.63;;
16139;SDS011;8175;49.326;12.690;2023-02-15T21:21:41;83.47;;;19.27;;
16139;SDS011;8175;49.326;12.690;2023-02-15T21:24:40;89.20;;;19.60;;
16139;SDS011;8175;49.326;12.690;2023-02-15T21:26:59;73.93;;;21.30;;
16139;SDS011;8175;49.326;12.690;2023-02-15T21:29:28;60.97;;;18.30;;
16139;SDS011;8175;49.326;12.690;2023-02-15T21:31:54;91.80;;;21.67;;
16139;SDS011;8175;49.326;12.690;2023-02-15T21:34:22;39.47;;;18.07;;
16139;SDS011;8175;49.326;12.690;2023-02-15T21:36:48;42.60;;;17.53;;
16139;SDS011;8175;49.326;12.690;2023-02-15T21:39:18;37.63;;;18.57;;
16139;SDS011;8175;49.326;12.690;2023-02-15T21:41:46;41.17;;;19.47;;
16139;SDS011;8175;49.326;12.690;2023-02-15T21:44:32;63.17;;;19.90;;
16139;SDS011;8175;49.326;12.690;2023-02-15T21:50:06;51.50;;;17.83;;
16139;SDS011;8175;49.326;12.690;2023-02-15T21:52:52;49.87;;;17.50;;
16139;SDS011;8175;49.326;12.690;2023-02-15T21:55:18;54.77;;;19.00;;
16139;SDS011;8175;49.326;12.690;2023-02-15T21:57:44;45.73;;;17.43;;
16139;SDS011;8175;49.326;12.690;2023-02-15T22:00:28;64.80;;;18.03;;
16139;SDS011;8175;49.326;12.690;2023-02-15T22:02:55;51.57;;;18.13;;
16139;SDS011;8175;49.326;12.690;2023-02-15T22:05:29;110.80;;;20.63;;
16139;SDS011;8175;49.326;12.690;2023-02-15T22:07:56;61.97;;;18.63;;
16139;SDS011;8175;49.326;12.690;2023-02-15T22:10:23;48.00;;;17.37;;
16139;SDS011;8175;49.326;12.690;2023-02-15T22:12:52;48.83;;;18.20;;
16139;SDS011;8175;49.326;12.690;2023-02-15T22:15:20;49.43;;;17.30;;
16139;SDS011;8175;49.326;12.690;2023-02-15T22:17:48;64.50;;;19.13;;
16139;SDS011;8175;49.326;12.690;2023-02-15T22:20:19;84.03;;;20.07;;
16139;SDS011;8175;49.326;12.690;2023-02-15T22:22:46;67.60;;;21.33;;
16139;SDS011;8175;49.326;12.690;2023-02-15T22:25:13;33.27;;;16.93;;
16139;SDS011;8175;49.326;12.690;2023-02-15T22:27:41;47.40;;;17.67;;
16139;SDS011;8175;49.326;12.690;2023-02-15T22:32:53;40.63;;;17.47;;
16139;SDS011;8175;49.326;12.690;2023-02-15T22:35:22;40.30;;;17.27;;
16139;SDS011;8175;49.326;12.690;2023-02-15T22:37:58;58.67;;;17.93;;
16139;SDS011;8175;49.326;12.690;2023-02-15T22:40:26;73.20;;;19.40;;
16139;SDS011;8175;49.326;12.690;2023-02-15T22:42:55;72.97;;;18.10;;
16139;SDS011;8175;49.326;12.690;2023-02-15T22:45:23;64.30;;;18.63;;
16139;SDS011;8175;49.326;12.690;2023-02-15T22:47:52;96.13;;;21.17;;
16139;SDS011;8175;49.326;12.690;2023-02-15T22:50:20;59.43;;;17.00;;
16139;SDS011;8175;49.326;12.690;2023-02-15T22:52:59;96.90;;;21.17;;
16139;SDS011;8175;49.326;12.690;2023-02-15T22:55:26;62.80;;;18.53;;
16139;SDS011;8175;49.326;12.690;2023-02-15T22:57:57;64.77;;;18.50;;
16139;SDS011;8175;49.326;12.690;2023-02-15T23:00:24;50.80;;;18.87;;
16139;SDS011;8175;49.326;12.690;2023-02-15T23:02:52;53.43;;;18.83;;
16139;SDS011;8175;49.326;12.690;2023-02-15T23:05:22;46.90;;;19.27;;
16139;SDS011;8175;49.326;12.690;2023-02-15T23:07:53;58.20;;;18.40;;
16139;SDS011;8175;49.326;12.690;2023-02-15T23:10:19;71.30;;;18.60;;
16139;SDS011;8175;49.326;12.690;2023-02-15T23:12:54;85.77;;;21.10;;
16139;SDS011;8175;49.326;12.690;2023-02-15T23:15:40;48.70;;;16.93;;
16139;SDS011;8175;49.326;12.690;2023-02-15T23:18:20;53.83;;;18.70;;
16139;SDS011;8175;49.326;12.690;2023-02-15T23:20:55;50.47;;;17.40;;
16139;SDS011;8175;49.326;12.690;2023-02-15T23:23:28;47.10;;;17.97;;
16139;SDS011;8175;49.326;12.690;2023-02-15T23:25:59;52.77;;;18.57;;
16139;SDS011;8175;49.326;12.690;2023-02-15T23:28:30;48.03;;;18.93;;
16139;SDS011;8175;49.326;12.690;2023-02-15T23:30:58;35.97;;;17.80;;
16139;SDS011;8175;49.326;12.690;2023-02-15T23:33:29;33.83;;;16.33;;
16139;SDS011;8175;49.326;12.690;2023-02-15T23:35:57;36.27;;;17.07;;
16139;SDS011;8175;49.326;12.690;2023-02-15T23:38:29;35.97;;;17.23;;
16139;SDS011;8175;49.326;12.690;2023-02-15T23:40:57;40.90;;;16.10;;
16139;SDS011;8175;49.326;12.690;2023-02-15T23:43:44;55.97;;;16.97;;
16139;SDS011;8175;49.326;12.690;2023-02-15T23:46:19;51.17;;;17.00;;
16139;SDS011;8175;49.326;12.690;2023-02-15T23:48:48;31.70;;;17.13;;
16139;SDS011;8175;49.326;12.690;2023-02-15T23:51:14;33.97;;;17.97;;
16139;SDS011;8175;49.326;12.690;2023-02-15T23:53:40;38.03;;;17.23;;
16139;SDS011;8175;49.326;12.690;2023-02-15T23:56:08;68.00;;;21.73;;
16139;SDS011;8175;49.326;12.690;2023-02-15T23:58:39;51.03;;;18.37;;
